Time;durP1;ratioP1;P1;durP2;ratioP2;P2;SDS_P1;SDS_P2;PMS_P1;PMS_P2;Temp;Humidity;BMP_temperature;BMP_pressure;BME280_temperature;BME280_humidity;BME280_pressure;Samples;Min_cycle;Max_cycle;Signal;HPM_P1;HPM_P2
2024/01/18 00:03:54;;;;;;;1999.90;999.90;;;;;;;-0.48;100.00;99250.78;10334556;28;20476;-66
2024/01/18 00:08:57;;;;;;;1999.90;999.90;;;;;;;-0.58;100.00;99257.16;10333939;28;20054;-66
2024/01/18 00:14:00;;;;;;;1999.90;999.90;;;;;;;-0.77;100.00;99272.41;10334807;28;20089;-67
2024/01/18 00:19:02;;;;;;;1999.90;999.90;;;;;;;-0.55;100.00;99267.31;10333771;28;20050;-67
2024/01/18 00:24:06;;;;;;;1999.90;999.90;;;;;;;-0.52;100.00;99269.78;10333078;28;20050;-67
2024/01/18 00:29:08;;;;;;;1999.90;999.90;;;;;;;-0.60;100.00;99271.78;10333409;28;20046;-67
2024/01/18 00:34:11;;;;;;;1999.90;999.90;;;;;;;-0.59;100.00;99282.03;10334512;28;20054;-66
2024/01/18 00:39:18;;;;;;;1999.90;999.90;;;;;;;-0.48;100.00;99293.66;10334368;28;20046;-66
2024/01/18 00:44:21;;;;;;;1999.90;999.90;;;;;;;-0.78;100.00;99302.38;10333703;28;20129;-66
2024/01/18 00:49:23;;;;;;;1999.90;999.90;;;;;;;-0.54;100.00;99314.44;10334188;28;20050;-67
2024/01/18 00:54:26;;;;;;;1999.90;999.90;;;;;;;-0.59;100.00;99307.72;10333449;28;20046;-67
2024/01/18 00:59:28;;;;;;;1999.90;999.90;;;;;;;-0.74;100.00;99315.94;10333284;28;20054;-66
2024/01/18 01:04:31;;;;;;;1999.90;999.90;;;;;;;-0.72;100.00;99315.91;10332045;28;20478;-67
2024/01/18 01:09:33;;;;;;;1999.90;999.90;;;;;;;-0.77;100.00;99326.38;10340521;28;20054;-66
2024/01/18 01:14:35;;;;;;;1999.90;999.90;;;;;;;-0.59;100.00;99317.16;10341055;28;20050;-66
2024/01/18 01:19:38;;;;;;;1999.90;999.90;;;;;;;-0.68;100.00;99336.31;10340830;28;20050;-66
2024/01/18 01:24:40;;;;;;;1999.90;999.90;;;;;;;-0.68;100.00;99336.31;10340738;28;20050;-67
2024/01/18 01:29:43;;;;;;;1999.90;999.90;;;;;;;-0.87;100.00;99345.56;10341111;28;20050;-66
2024/01/18 01:34:45;;;;;;;1999.90;999.90;;;;;;;-0.72;100.00;99350.19;10340906;28;20058;-66
2024/01/18 01:39:47;;;;;;;1999.90;999.90;;;;;;;-0.58;100.00;99344.56;10323487;28;20058;-66
2024/01/18 01:44:52;;;;;;;1999.90;999.90;;;;;;;-0.76;100.00;99356.28;10339333;28;20129;-67
2024/01/18 01:49:55;;;;;;;1999.90;999.90;;;;;;;-0.89;100.00;99371.31;10339722;28;20482;-67
2024/01/18 01:54:58;;;;;;;1999.90;999.90;;;;;;;-0.83;100.00;99365.13;10340125;28;20084;-67
2024/01/18 02:00:00;;;;;;;1999.90;999.90;;;;;;;-1.06;100.00;99361.59;10322873;28;20082;-66
2024/01/18 02:05:03;;;;;;;1999.90;999.90;;;;;;;-1.13;100.00;99371.22;10322479;28;20081;-66
2024/01/18 02:10:07;;;;;;;1999.90;999.90;;;;;;;-0.93;100.00;99370.53;10321965;28;20454;-66
2024/01/18 02:15:10;;;;;;;1999.90;999.90;;;;;;;-0.93;100.00;99378.25;10338759;28;20093;-66
2024/01/18 02:20:13;;;;;;;1999.90;999.90;;;;;;;-0.66;100.00;99375.66;10337241;28;20054;-66
2024/01/18 02:25:20;;;;;;;1999.90;999.90;;;;;;;-0.73;100.00;99387.03;10337211;28;20086;-66
2024/01/18 02:30:22;;;;;;;1999.90;999.90;;;;;;;-0.60;100.00;99395.19;10337686;28;20082;-64
2024/01/18 02:35:26;;;;;;;1999.90;999.90;;;;;;;-0.65;100.00;99391.94;10337464;28;20053;-64
2024/01/18 02:40:28;;;;;;;1999.90;999.90;;;;;;;-0.74;100.00;99393.06;10338425;28;20078;-64
2024/01/18 02:45:31;;;;;;;1999.90;999.90;;;;;;;-0.72;100.00;99393.88;10336361;28;20052;-64
2024/01/18 02:50:33;;;;;;;1999.90;999.90;;;;;;;-0.84;100.00;99384.84;10338508;28;20054;-64
2024/01/18 02:55:35;;;;;;;1999.90;999.90;;;;;;;-0.84;100.00;99392.56;10337309;28;20486;-64
2024/01/18 03:00:38;;;;;;;1999.90;999.90;;;;;;;-0.99;100.00;99396.44;10337641;28;20060;-64
2024/01/18 03:05:41;;;;;;;1999.90;999.90;;;;;;;-1.19;100.00;99409.94;10336044;28;20430;-64
2024/01/18 03:10:44;;;;;;;1999.90;999.90;;;;;;;-1.34;100.00;99405.28;10336623;28;20438;-64
2024/01/18 03:15:46;;;;;;;1999.90;999.90;;;;;;;-1.10;100.00;99403.66;10337015;28;20126;-64
2024/01/18 03:20:48;;;;;;;1999.90;999.90;;;;;;;-1.25;100.00;99402.41;10335069;28;20064;-64
2024/01/18 03:25:51;;;;;;;1999.90;999.90;;;;;;;-1.28;100.00;99401.66;10335903;28;20133;-64
2024/01/18 03:30:53;;;;;;;1999.90;999.90;;;;;;;-1.33;100.00;99412.94;10335772;28;20521;-64
2024/01/18 03:35:57;;;;;;;1999.90;999.90;;;;;;;-1.57;100.00;99406.78;10335610;28;20478;-64
2024/01/18 03:40:59;;;;;;;1999.90;999.90;;;;;;;-1.61;100.00;99406.97;10334759;28;20422;-67
2024/01/18 03:46:02;;;;;;;1999.90;999.90;;;;;;;-1.71;100.00;99414.91;10335772;28;20125;-66
2024/01/18 03:51:05;;;;;;;1999.90;999.90;;;;;;;-1.89;100.00;99423.13;10335721;28;20097;-66
2024/01/18 03:56:07;;;;;;;1999.90;999.90;;;;;;;-2.06;100.00;99424.44;10334410;28;20234;-67
2024/01/18 04:01:09;;;;;;;1999.90;999.90;;;;;;;-2.19;100.00;99430.78;10335364;28;20053;-66
2024/01/18 04:06:13;;;;;;;1999.90;999.90;;;;;;;-2.36;100.00;99430.41;10335202;28;20121;-67
2024/01/18 04:11:16;;;;;;;1999.90;999.90;;;;;;;-1.96;100.00;99431.91;10334441;28;20124;-66
2024/01/18 04:16:19;;;;;;;1999.90;999.90;;;;;;;-2.22;100.00;99435.16;10317076;28;20405;-66
2024/01/18 04:21:21;;;;;;;1999.90;999.90;;;;;;;-2.28;100.00;99442.13;10334852;28;20058;-67
2024/01/18 04:26:24;;;;;;;1999.90;999.90;;;;;;;-2.05;100.00;99448.38;10334087;28;20054;-66
2024/01/18 04:31:27;;;;;;;1999.90;999.90;;;;;;;-2.44;100.00;99453.66;10317345;28;20046;-66
2024/01/18 04:36:29;;;;;;;1999.90;999.90;;;;;;;-2.47;100.00;99449.47;10333813;28;20046;-66
2024/01/18 04:41:32;;;;;;;1999.90;999.90;;;;;;;-2.51;100.00;99467.53;10339607;28;20478;-66
2024/01/18 04:46:34;;;;;;;1999.90;999.90;;;;;;;-2.49;100.00;99476.00;10347648;28;20050;-66
2024/01/18 04:51:37;;;;;;;1999.90;999.90;;;;;;;-2.62;100.00;99470.38;10347686;28;20061;-66
2024/01/18 04:56:39;;;;;;;1999.90;999.90;;;;;;;-2.74;100.00;99468.06;10347433;28;20401;-66
2024/01/18 05:01:41;;;;;;;1999.90;999.90;;;;;;;-2.57;100.00;99468.53;10347488;28;20050;-66
2024/01/18 05:06:44;;;;;;;1999.90;999.90;;;;;;;-2.71;100.00;99488.50;10347308;28;20050;-66
2024/01/18 05:11:47;;;;;;;1999.90;999.90;;;;;;;-2.72;100.00;99499.63;10347289;28;20109;-67
2024/01/18 05:16:51;;;;;;;1999.90;999.90;;;;;;;-3.11;100.00;99489.44;10347681;28;20046;-66
2024/01/18 05:21:54;;;;;;;1999.90;999.90;;;;;;;-3.15;100.00;99498.91;10345992;28;20077;-67
2024/01/18 05:26:57;;;;;;;1999.90;999.90;;;;;;;-2.90;100.00;99501.75;10345190;28;20050;-67
2024/01/18 05:31:59;;;;;;;1999.90;999.90;;;;;;;-3.11;100.00;99512.47;10346952;28;20050;-66
2024/01/18 05:37:02;;;;;;;1999.90;999.90;;;;;;;-3.02;100.00;99515.69;10346660;28;20054;-66
2024/01/18 05:42:04;;;;;;;1999.90;999.90;;;;;;;-3.00;100.00;99523.31;10346713;28;20056;-66
2024/01/18 05:47:08;;;;;;;1999.90;999.90;;;;;;;-3.07;100.00;99540.53;10344796;28;20409;-66
2024/01/18 05:52:10;;;;;;;1999.90;999.90;;;;;;;-2.90;100.00;99537.59;10344089;28;20054;-67
2024/01/18 05:57:12;;;;;;;1999.90;999.90;;;;;;;-2.92;100.00;99548.78;10322883;28;20046;-66
2024/01/18 06:02:15;;;;;;;1999.90;999.90;;;;;;;-3.10;100.00;99545.72;10338224;28;20073;-67
2024/01/18 06:07:17;;;;;;;1999.90;999.90;;;;;;;-3.46;100.00;99553.31;10339716;28;20084;-66
2024/01/18 06:12:20;;;;;;;1999.90;999.90;;;;;;;-3.18;100.00;99555.28;10338975;28;20552;-66
2024/01/18 06:17:22;;;;;;;1999.90;999.90;;;;;;;-3.20;100.00;99557.88;10339275;28;20100;-66
2024/01/18 06:22:25;;;;;;;1999.90;999.90;;;;;;;-3.26;100.00;99575.94;10339417;28;20054;-66
2024/01/18 06:27:27;;;;;;;1999.90;999.90;;;;;;;-3.29;100.00;99590.53;10338644;28;20137;-66
2024/01/18 06:32:30;;;;;;;1999.90;999.90;;;;;;;-3.41;100.00;99605.25;10338818;28;20097;-66
2024/01/18 06:37:33;;;;;;;1999.90;999.90;;;;;;;-3.41;100.00;99614.66;10338637;28;20043;-66
2024/01/18 06:42:36;;;;;;;1999.90;999.90;;;;;;;-3.41;100.00;99618.03;10338423;28;20054;-66
2024/01/18 06:47:38;;;;;;;1999.90;999.90;;;;;;;-3.32;100.00;99631.53;10336992;28;20050;-66
2024/01/18 06:52:40;;;;;;;1999.90;999.90;;;;;;;-3.53;100.00;99617.41;10338064;28;20054;-66
2024/01/18 06:57:47;;;;;;;1999.90;999.90;;;;;;;-3.57;100.00;99624.31;10320129;28;20545;-66
2024/01/18 07:02:50;;;;;;;1999.90;999.90;;;;;;;-3.50;100.00;99635.28;10336150;28;20050;-67
2024/01/18 07:07:53;;;;;;;1999.90;999.90;;;;;;;-3.49;100.00;99640.38;10337413;28;20050;-66
2024/01/18 07:12:56;;;;;;;1999.90;999.90;;;;;;;-3.34;100.00;99646.09;10319983;28;20059;-66
2024/01/18 07:17:58;;;;;;;1999.90;999.90;;;;;;;-3.38;100.00;99655.50;10336365;28;20148;-66
2024/01/18 07:23:00;;;;;;;1999.90;999.90;;;;;;;-3.44;100.00;99665.88;10336136;28;20383;-66
2024/01/18 07:28:03;;;;;;;1999.90;999.90;;;;;;;-3.32;100.00;99675.88;10335853;28;20517;-66
2024/01/18 07:33:05;;;;;;;1999.90;999.90;;;;;;;-3.33;100.00;99675.91;10336444;28;20054;-66
2024/01/18 07:38:08;;;;;;;1999.90;999.90;;;;;;;-3.24;100.00;99676.59;10335238;28;20090;-66
2024/01/18 07:43:11;;;;;;;1999.90;999.90;;;;;;;-3.34;100.00;99682.75;10336010;28;20054;-66
2024/01/18 07:48:13;;;;;;;1999.90;999.90;;;;;;;-3.45;100.00;99684.66;10335919;28;20081;-67
2024/01/18 07:53:16;;;;;;;1999.90;999.90;;;;;;;-3.28;100.00;99700.53;10335103;28;20056;-66
2024/01/18 07:58:18;;;;;;;1999.90;999.90;;;;;;;-3.51;100.00;99708.66;10335471;28;20060;-66
2024/01/18 08:03:21;;;;;;;1999.90;999.90;;;;;;;-3.22;100.00;99708.13;10334615;28;20409;-67
2024/01/18 08:08:23;;;;;;;1999.90;999.90;;;;;;;-3.26;100.00;99715.88;10334540;28;20068;-66
2024/01/18 08:13:25;;;;;;;1999.90;999.90;;;;;;;-3.12;100.00;99726.72;10333227;28;20046;-66
2024/01/18 08:18:28;;;;;;;1999.90;999.90;;;;;;;-2.87;100.00;99739.91;10334190;28;20050;-66
2024/01/18 08:23:30;;;;;;;1999.90;999.90;;;;;;;-2.86;100.00;99745.88;10333906;28;20050;-66
2024/01/18 08:28:33;;;;;;;1999.90;999.90;;;;;;;-2.88;100.00;99755.31;10333509;28;20069;-66
2024/01/18 08:33:35;;;;;;;1999.90;999.90;;;;;;;-2.84;100.00;99755.22;10333903;28;20394;-66
2024/01/18 08:38:37;;;;;;;1999.90;999.90;;;;;;;-2.56;100.00;99769.22;10334415;28;20050;-66
2024/01/18 08:43:40;;;;;;;1999.90;999.90;;;;;;;-2.44;100.00;99774.94;10333108;28;20046;-66
2024/01/18 08:48:42;;;;;;;1999.90;999.90;;;;;;;-2.35;100.00;99785.88;10334226;28;20061;-66
2024/01/18 08:53:46;;;;;;;1999.90;999.90;;;;;;;-2.74;100.00;99790.91;10333003;28;20129;-66
2024/01/18 08:58:49;;;;;;;1999.90;999.90;;;;;;;-2.72;100.00;99805.38;10332761;28;20421;-66
2024/01/18 09:03:51;;;;;;;1999.90;999.90;;;;;;;-2.71;100.00;99822.44;10333907;28;20050;-66
2024/01/18 09:08:54;;;;;;;1999.90;999.90;;;;;;;-2.48;100.00;99826.31;10333839;28;20053;-66
2024/01/18 09:13:57;;;;;;;1999.90;999.90;;;;;;;-1.80;100.00;99828.31;10333162;28;20402;-67
2024/01/18 09:19:00;;;;;;;1999.90;999.90;;;;;;;-0.47;100.00;99831.03;10333079;28;20406;-66
2024/01/18 09:24:15;;;;;;;1999.90;999.90;;;;;;;4.63;91.10;99836.88;10332803;28;20054;-64
2024/01/18 09:29:18;;;;;;;1999.90;999.90;;;;;;;6.67;80.94;99833.22;10337399;28;20120;-65
2024/01/18 09:34:20;;;;;;;1999.90;999.90;;;;;;;7.68;79.37;99841.19;10339897;28;20050;-65
2024/01/18 09:39:23;;;;;;;1999.90;999.90;;;;;;;8.64;80.19;99849.19;10340874;28;20125;-65
2024/01/18 09:44:32;;;;;;;1999.90;999.90;;;;;;;8.99;74.61;99856.47;10340914;28;20078;-65
2024/01/18 09:49:36;;;;;;;1999.90;999.90;;;;;;;10.39;71.88;99862.63;10339886;28;20433;-66
2024/01/18 09:54:39;;;;;;;1999.90;999.90;;;;;;;10.26;66.85;99874.06;10339672;28;20050;-66
2024/01/18 09:59:44;;;;;;;1999.90;999.90;;;;;;;10.71;66.49;99888.28;10339928;28;20047;-66
2024/01/18 10:04:49;;;;;;;1999.90;999.90;;;;;;;9.05;64.68;99900.47;10323272;28;20054;-66
2024/01/18 10:09:54;;;;;;;1999.90;999.90;;;;;;;7.91;66.53;99907.56;10338022;28;20050;-66
2024/01/18 10:14:57;;;;;;;1999.90;999.90;;;;;;;5.33;67.31;99933.78;10338939;28;20058;-66
2024/01/18 10:20:01;;;;;;;1999.90;999.90;;;;;;;5.31;70.13;99934.75;10339856;28;20088;-65
2024/01/18 10:25:04;;;;;;;1999.90;999.90;;;;;;;4.43;70.20;99939.75;10337430;28;20054;-65
2024/01/18 10:30:10;;;;;;;1999.90;999.90;;;;;;;2.77;75.19;99949.31;10337790;28;20050;-65
2024/01/18 10:35:24;;;;;;;1999.90;999.90;;;;;;;2.08;79.05;99963.03;10337683;28;20105;-64
2024/01/18 10:40:27;;;;;;;1999.90;999.90;;;;;;;2.20;79.84;99969.50;10343577;23;20138;-66
2024/01/18 10:45:30;;;;;;;1999.90;999.90;;;;;;;2.93;75.84;99970.25;10336445;28;20064;-66
2024/01/18 10:50:34;;;;;;;1999.90;999.90;;;;;;;2.41;78.13;99973.06;10336706;28;20050;-66
2024/01/18 10:55:36;;;;;;;1999.90;999.90;;;;;;;2.33;79.93;99975.91;10335677;28;20456;-66
2024/01/18 11:00:39;;;;;;;1999.90;999.90;;;;;;;2.00;80.89;99977.97;10336050;28;20137;-66
2024/01/18 11:05:45;;;;;;;1999.90;999.90;;;;;;;2.67;79.05;99986.75;10336945;28;20490;-68
2024/01/18 11:10:48;;;;;;;1999.90;999.90;;;;;;;2.68;78.82;99996.19;10336346;28;20050;-69
2024/01/18 11:15:52;;;;;;;1999.90;999.90;;;;;;;2.81;79.38;100006.91;10337176;28;20051;-66
2024/01/18 11:21:06;;;;;;;1999.90;999.90;;;;;;;4.69;77.70;99997.38;10336359;28;20482;-66
2024/01/18 11:26:18;;;;;;;1999.90;999.90;;;;;;;4.09;73.60;100002.59;10335729;28;20057;-66
2024/01/18 11:31:44;;;;;;;1999.90;999.90;;;;;;;3.63;72.54;100015.75;10335995;28;20469;-67
2024/01/18 11:36:48;;;;;;;1999.90;999.90;;;;;;;2.63;75.93;100024.78;10335327;28;20052;-68
2024/01/18 11:41:50;;;;;;;1999.90;999.90;;;;;;;3.08;75.47;100030.88;10335915;28;20551;-68
2024/01/18 11:46:54;;;;;;;1999.90;999.90;;;;;;;3.20;75.97;100026.97;10334725;28;20109;-68
2024/01/18 11:51:58;;;;;;;1999.90;999.90;;;;;;;3.46;74.62;100033.69;10334884;28;20057;-68
2024/01/18 11:57:02;;;;;;;1999.90;999.90;;;;;;;3.03;74.91;100044.00;10333936;28;20399;-67
2024/01/18 12:02:04;;;;;;;1999.90;999.90;;;;;;;3.49;74.85;100046.50;10333719;28;20076;-67
2024/01/18 12:07:07;;;;;;;1999.90;999.90;;;;;;;4.85;72.72;100036.38;10335290;28;20089;-68
2024/01/18 12:12:10;;;;;;;1999.90;999.90;;;;;;;4.28;70.24;100050.13;10317878;28;20533;-68
2024/01/18 12:17:13;;;;;;;1999.90;999.90;;;;;;;3.60;72.06;100057.28;10333274;28;20054;-68
2024/01/18 12:22:18;;;;;;;1999.90;999.90;;;;;;;3.95;73.05;100065.38;10334918;28;20050;-68
2024/01/18 12:27:21;;;;;;;1999.90;999.90;;;;;;;4.15;74.12;100081.81;10332960;28;20517;-68
2024/01/18 12:32:23;;;;;;;1999.90;999.90;;;;;;;3.50;74.26;100095.63;10333509;28;20050;-68
2024/01/18 12:37:25;;;;;;;1999.90;999.90;;;;;;;3.25;76.33;100095.75;10333191;28;20050;-68
2024/01/18 12:42:28;;;;;;;1999.90;999.90;;;;;;;3.12;78.22;100094.53;10333834;28;20058;-68
2024/01/18 12:47:30;;;;;;;1999.90;999.90;;;;;;;2.60;78.20;100110.19;10332443;28;20082;-67
2024/01/18 12:52:33;;;;;;;1999.90;999.90;;;;;;;2.51;79.63;100121.69;10333102;28;20046;-67
2024/01/18 12:57:35;;;;;;;1999.90;999.90;;;;;;;2.47;81.43;100125.31;10333049;28;20081;-67
2024/01/18 13:02:41;;;;;;;1999.90;999.90;;;;;;;2.66;82.05;100129.81;10321375;28;20129;-68
2024/01/18 13:07:44;;;;;;;1999.90;999.90;;;;;;;2.38;84.76;100143.69;10342085;28;20057;-68
2024/01/18 13:12:49;;;;;;;1999.90;999.90;;;;;;;2.31;85.74;100143.06;10341351;28;20082;-67
2024/01/18 13:17:52;;;;;;;1999.90;999.90;;;;;;;2.34;86.53;100155.03;10340694;28;20050;-67
2024/01/18 13:22:54;;;;;;;1999.90;999.90;;;;;;;2.23;86.37;100163.13;10340453;28;20050;-67
2024/01/18 13:27:57;;;;;;;1999.90;999.90;;;;;;;2.33;87.78;100163.66;10341339;28;20077;-67
2024/01/18 13:32:59;;;;;;;1999.90;999.90;;;;;;;2.18;88.46;100165.84;10341222;28;20085;-67
2024/01/18 13:38:09;;;;;;;1999.90;999.90;;;;;;;2.60;89.20;100185.13;10340741;28;20050;-67
2024/01/18 13:43:13;;;;;;;1999.90;999.90;;;;;;;2.32;89.42;100196.41;10339689;28;20081;-67
2024/01/18 13:48:16;;;;;;;1999.90;999.90;;;;;;;2.43;90.18;100206.38;10339885;28;20069;-67
2024/01/18 13:53:19;;;;;;;1999.90;999.90;;;;;;;2.30;91.88;100212.84;10339304;28;20081;-67
2024/01/18 13:58:22;;;;;;;1999.90;999.90;;;;;;;2.34;92.07;100230.78;10339581;28;20386;-68
2024/01/18 14:03:24;;;;;;;1999.90;999.90;;;;;;;2.23;92.52;100236.28;10338220;28;20129;-67
2024/01/18 14:08:27;;;;;;;1999.90;999.90;;;;;;;2.15;92.98;100237.44;10339783;28;20089;-68
2024/01/18 14:13:29;;;;;;;1999.90;999.90;;;;;;;2.56;92.68;100258.53;10338606;28;20058;-68
2024/01/18 14:18:31;;;;;;;1999.90;999.90;;;;;;;2.18;93.67;100258.84;10338833;28;20050;-68
2024/01/18 14:23:35;;;;;;;1999.90;999.90;;;;;;;2.16;95.27;100270.13;10339299;28;20057;-68
2024/01/18 14:28:38;;;;;;;1999.90;999.90;;;;;;;2.12;95.07;100291.75;10337295;28;20481;-68
2024/01/18 14:33:40;;;;;;;1999.90;999.90;;;;;;;2.60;94.36;100304.03;10338970;28;20062;-68
2024/01/18 14:38:42;;;;;;;1999.90;999.90;;;;;;;2.70;94.34;100312.34;10338617;28;20047;-68
2024/01/18 14:43:45;;;;;;;1999.90;999.90;;;;;;;2.57;93.89;100314.47;10337465;28;20078;-68
2024/01/18 14:48:47;;;;;;;1999.90;999.90;;;;;;;2.59;94.42;100325.63;10337657;28;20406;-68
2024/01/18 14:53:49;;;;;;;1999.90;999.90;;;;;;;2.36;94.08;100342.66;10338170;28;20061;-68
2024/01/18 14:58:52;;;;;;;1999.90;999.90;;;;;;;2.16;94.05;100351.03;10336242;28;20474;-68
2024/01/18 15:03:54;;;;;;;1999.90;999.90;;;;;;;2.10;95.37;100373.59;10319992;28;20086;-68
2024/01/18 15:08:57;;;;;;;1999.90;999.90;;;;;;;1.82;96.10;100377.81;10337503;28;20046;-68
2024/01/18 15:13:59;;;;;;;1999.90;999.90;;;;;;;1.86;96.36;100394.91;10337340;28;20050;-68
2024/01/18 15:19:01;;;;;;;1999.90;999.90;;;;;;;1.71;98.04;100402.22;10336473;28;20050;-68
2024/01/18 15:24:15;;;;;;;1999.90;999.90;;;;;;;1.69;98.60;100409.19;10335620;28;20595;-68
2024/01/18 15:29:18;;;;;;;1999.90;999.90;;;;;;;1.72;98.37;100422.00;10335426;28;20058;-68
2024/01/18 15:34:21;;;;;;;1999.90;999.90;;;;;;;1.73;98.57;100434.88;10335683;28;20058;-68
2024/01/18 15:39:27;;;;;;;1999.90;999.90;;;;;;;1.77;98.54;100449.38;10335952;28;20062;-68
2024/01/18 15:44:30;;;;;;;1999.90;999.90;;;;;;;1.55;99.70;100468.91;10335033;28;20050;-68
2024/01/18 15:49:33;;;;;;;1999.90;999.90;;;;;;;1.38;99.71;100470.16;10336483;28;20054;-68
2024/01/18 15:54:36;;;;;;;1999.90;999.90;;;;;;;1.23;99.45;100492.00;10334667;28;20046;-68
2024/01/18 15:59:38;;;;;;;1999.90;999.90;;;;;;;1.34;100.00;100502.06;10334464;28;20054;-68
2024/01/18 16:04:41;;;;;;;1999.90;999.90;;;;;;;1.11;100.00;100516.34;10333574;28;20505;-68
2024/01/18 16:09:43;;;;;;;1999.90;999.90;;;;;;;0.92;100.00;100527.94;10335233;28;20047;-68
2024/01/18 16:14:47;;;;;;;1999.90;999.90;;;;;;;1.03;100.00;100546.63;10334541;28;20050;-68
2024/01/18 16:19:50;;;;;;;1999.90;999.90;;;;;;;0.92;100.00;100567.47;10334458;28;20054;-68
2024/01/18 16:24:53;;;;;;;1999.90;999.90;;;;;;;0.64;100.00;100582.66;10334098;28;20073;-68
2024/01/18 16:29:56;;;;;;;1999.90;999.90;;;;;;;0.65;100.00;100591.22;10334984;28;20050;-68
2024/01/18 16:35:09;;;;;;;1999.90;999.90;;;;;;;0.58;100.00;100600.81;10332881;28;20405;-68
2024/01/18 16:40:12;;;;;;;1999.90;999.90;;;;;;;0.24;100.00;100611.72;10333582;28;20093;-68
2024/01/18 16:45:14;;;;;;;1999.90;999.90;;;;;;;0.35;100.00;100622.69;10333713;28;20516;-68
2024/01/18 16:50:17;;;;;;;1999.90;999.90;;;;;;;0.43;100.00;100632.00;10333142;28;20050;-68
2024/01/18 16:55:20;;;;;;;1999.90;999.90;;;;;;;0.35;100.00;100642.44;10334015;28;20068;-68
2024/01/18 17:00:22;;;;;;;1999.90;999.90;;;;;;;0.59;100.00;100650.59;10334294;28;20062;-68
2024/01/18 17:05:25;;;;;;;1999.90;999.90;;;;;;;0.35;100.00;100668.19;10333977;28;20050;-68
2024/01/18 17:10:27;;;;;;;1999.90;999.90;;;;;;;0.54;100.00;100682.47;10333892;28;20050;-68
2024/01/18 17:15:31;;;;;;;1999.90;999.90;;;;;;;0.44;100.00;100688.66;10333857;28;20054;-68
2024/01/18 17:20:33;;;;;;;1999.90;999.90;;;;;;;0.31;100.00;100698.31;10332590;28;20101;-68
2024/01/18 17:25:36;;;;;;;1999.90;999.90;;;;;;;0.22;100.00;100718.19;10332163;28;20077;-68
2024/01/18 17:30:39;;;;;;;1999.90;999.90;;;;;;;0.41;100.00;100721.34;10333594;28;20080;-68
2024/01/18 17:35:41;;;;;;;1999.90;999.90;;;;;;;0.15;100.00;100730.31;10331673;28;20050;-68
2024/01/18 17:40:44;;;;;;;1999.90;999.90;;;;;;;0.22;100.00;100744.81;10332694;28;20089;-68
2024/01/18 17:45:46;;;;;;;1999.90;999.90;;;;;;;0.15;100.00;100749.22;10333203;28;20061;-68
2024/01/18 17:50:49;;;;;;;1999.90;999.90;;;;;;;0.28;100.00;100755.00;10338731;28;20508;-68
2024/01/18 17:55:51;;;;;;;1999.90;999.90;;;;;;;0.05;100.00;100760.53;10340418;28;20494;-68
2024/01/18 18:00:53;;;;;;;1999.90;999.90;;;;;;;0.07;100.00;100770.78;10340232;28;20149;-68
2024/01/18 18:05:56;;;;;;;1999.90;999.90;;;;;;;-0.17;100.00;100777.13;10338621;28;20074;-68
2024/01/18 18:10:59;;;;;;;1999.90;999.90;;;;;;;0.20;100.00;100781.75;10339201;28;20394;-68
2024/01/18 18:16:02;;;;;;;1999.90;999.90;;;;;;;-0.25;100.00;100784.97;10339699;28;20047;-68
2024/01/18 18:21:05;;;;;;;1999.90;999.90;;;;;;;-0.21;100.00;100797.75;10338813;28;20482;-68
2024/01/18 18:26:07;;;;;;;1999.90;999.90;;;;;;;-0.47;100.00;100798.09;10339089;28;20485;-68
2024/01/18 18:31:11;;;;;;;1999.90;999.90;;;;;;;-0.49;100.00;100802.38;10339072;28;20088;-68
2024/01/18 18:36:14;;;;;;;1999.90;999.90;;;;;;;-0.32;100.00;100815.06;10338318;28;20383;-68
2024/01/18 18:41:16;;;;;;;1999.90;999.90;;;;;;;-0.32;100.00;100830.50;10337244;28;20058;-68
2024/01/18 18:46:18;;;;;;;1999.90;999.90;;;;;;;-0.11;100.00;100837.09;10321211;28;20074;-68
2024/01/18 18:51:21;;;;;;;1999.90;999.90;;;;;;;-0.03;100.00;100844.72;10338313;28;20061;-68
2024/01/18 18:56:23;;;;;;;1999.90;999.90;;;;;;;0.11;100.00;100854.84;10338119;28;20053;-68
2024/01/18 19:01:25;;;;;;;1999.90;999.90;;;;;;;-0.17;100.00;100865.47;10320712;28;20066;-68
2024/01/18 19:06:31;;;;;;;1999.90;999.90;;;;;;;-0.34;100.00;100877.69;10337065;28;20050;-68
2024/01/18 19:11:36;;;;;;;1999.90;999.90;;;;;;;-0.59;100.00;100894.22;10337504;28;20054;-68
2024/01/18 19:16:39;;;;;;;1999.90;999.90;;;;;;;-0.71;100.00;100912.31;10336717;28;20070;-68
2024/01/18 19:21:41;;;;;;;1999.90;999.90;;;;;;;-0.42;100.00;100909.50;10335952;28;20053;-68
2024/01/18 19:26:44;;;;;;;1999.90;999.90;;;;;;;-0.51;100.00;100924.16;10335538;28;20454;-68
2024/01/18 19:31:48;;;;;;;1999.90;999.90;;;;;;;-0.66;100.00;100926.00;10336621;28;20073;-68
2024/01/18 19:36:52;;;;;;;1999.90;999.90;;;;;;;-0.62;100.00;100944.84;10334791;28;20047;-68
2024/01/18 19:41:54;;;;;;;1999.90;999.90;;;;;;;-0.46;100.00;100955.84;10336123;28;20081;-68
2024/01/18 19:46:57;;;;;;;1999.90;999.90;;;;;;;-0.52;100.00;100963.59;10334975;28;20051;-68
2024/01/18 19:52:00;;;;;;;1999.90;999.90;;;;;;;-0.47;100.00;100969.56;10335379;28;20432;-67
2024/01/18 19:57:03;;;;;;;1999.90;999.90;;;;;;;-0.39;100.00;100978.06;10334169;28;20057;-68
2024/01/18 20:02:06;;;;;;;1999.90;999.90;;;;;;;-0.29;100.00;100987.38;10334541;28;20047;-68
2024/01/18 20:07:08;;;;;;;1999.90;999.90;;;;;;;-0.46;100.00;100995.25;10334805;28;20133;-68
2024/01/18 20:12:11;;;;;;;1999.90;999.90;;;;;;;-0.69;100.00;101003.19;10333824;28;20108;-68
2024/01/18 20:17:13;;;;;;;1999.90;999.90;;;;;;;-0.64;100.00;101010.84;10334493;28;20501;-68
2024/01/18 20:22:16;;;;;;;1999.90;999.90;;;;;;;-0.68;100.00;101022.88;10334980;28;20085;-68
2024/01/18 20:27:18;;;;;;;1999.90;999.90;;;;;;;-0.84;100.00;101028.97;10334764;28;20441;-68
2024/01/18 20:32:22;;;;;;;1999.90;999.90;;;;;;;-0.94;100.00;101030.78;10334076;28;20516;-68
2024/01/18 20:37:26;;;;;;;1999.90;999.90;;;;;;;-0.58;100.00;101034.81;10333200;28;20046;-68
2024/01/18 20:42:30;;;;;;;1999.90;999.90;;;;;;;-0.51;100.00;101037.34;10334201;28;20133;-68
2024/01/18 20:47:33;;;;;;;1999.90;999.90;;;;;;;-0.30;100.00;101047.47;10334319;28;20050;-68
2024/01/18 20:52:35;;;;;;;1999.90;999.90;;;;;;;-0.65;100.00;101058.88;10334220;28;20054;-67
2024/01/18 20:57:38;;;;;;;1999.90;999.90;;;;;;;-0.61;100.00;101077.69;10334174;28;20046;-68
2024/01/18 21:02:41;;;;;;;1999.90;999.90;;;;;;;-0.63;100.00;101080.28;10333480;28;20387;-68
2024/01/18 21:07:43;;;;;;;1999.90;999.90;;;;;;;-0.72;100.00;101087.19;10332182;28;20500;-68
2024/01/18 21:12:47;;;;;;;1999.90;999.90;;;;;;;-0.91;100.00;101083.88;10333272;28;20076;-68
2024/01/18 21:17:49;;;;;;;1999.90;999.90;;;;;;;-0.52;100.00;101099.91;10333357;28;20478;-67
2024/01/18 21:22:52;;;;;;;1999.90;999.90;;;;;;;-0.39;100.00;101109.25;10335737;28;20065;-68
2024/01/18 21:27:54;;;;;;;1999.90;999.90;;;;;;;-0.72;100.00;101108.63;10340260;28;20046;-67
2024/01/18 21:32:56;;;;;;;1999.90;999.90;;;;;;;-0.86;100.00;101120.69;10341496;28;20125;-67
2024/01/18 21:37:59;;;;;;;1999.90;999.90;;;;;;;-0.75;100.00;101116.34;10339276;28;20100;-67
2024/01/18 21:43:01;;;;;;;1999.90;999.90;;;;;;;-0.84;100.00;101121.53;10340829;28;20527;-67
2024/01/18 21:48:04;;;;;;;1999.90;999.90;;;;;;;-0.88;100.00;101127.56;10340662;28;20125;-67
2024/01/18 21:53:06;;;;;;;1999.90;999.90;;;;;;;-0.98;100.00;101125.03;10340165;28;20473;-67
2024/01/18 21:58:09;;;;;;;1999.90;999.90;;;;;;;-0.85;100.00;101127.56;10340426;28;20046;-67
2024/01/18 22:03:12;;;;;;;1999.90;999.90;;;;;;;-1.25;100.00;101138.00;10338980;28;20065;-67